Terminal Aerodrome Forecast
Issued by NWS

Home | Current Version | Previous Version | Text Only | Print | Product List | Glossary On
Versions: 1 2 3 4 5 6 7 8 9 10 11 12 13
000
FTUS42 KTAE 282323
TAFECP
TAF
KECP 282323Z 2900/2924 09009KT P6SM VCTS SCT025CB
     FM290100 04003KT P6SM BKN250
     FM291000 04005KT P6SM BKN015
     FM291400 04009KT P6SM SCT030=

USA.gov is the U.S. government's official web portal to all federal, state and local government web resources and services.